INDIA METEOROLOGICAL DEPARTMENT, R.M.C. NEW DELHI
Dated:22-09-2018
METARS


Agartala   
VEAT 220730Z 00000KT 6000 SCT018 SCT025 35/24 Q1012 NOSIG=
Ahmedabad  
VAAH 220730Z 02003KT 6000 FEW025 SCT080 35/25 Q1004 NOSIG=
Allahabad  
VEAB 220730Z 10010G20KT 4000 RAHZ BKN015 FEWTCU030 BKN090 29/24 Q1009 TEMPO3000M=
Amritsar   
VIAR 220730Z 12009KT 3000 BR SCT030 BKN080 26/19 Q1011 NOSIG=
Bangalore  
VOBL 220730Z 27008KT 220V310 9999 FEW015 28/14 Q1014 NOSIG=
Baroda     
VABO 220630Z 02003KT 6000 SCT020 SCT080 32/23 Q1004 NOSIG=
Bhopal     
VABP 220700Z 01001KT 5000 HZ SCT010 SCT020 BKN100 24/23 Q1004 NOSIG=
Bhubaneswar
VEBS 220730Z 00000KT 4000 HZ BKN018 FEW030CB BKN090 29/27 Q1011 TEMPO 1500 TSRA=
Chennai    
VOMM 220730Z 10005KT 7000 FEW020 SCT100 33/24 Q1008 NOSIG=
Coimbatore 
VOCB 220730Z 19010KT 6000 FEW015 34/20 Q1011 NOSIG=
Colombo    
VCBI 220740Z 23013KT 9999 SCT017 FEW020CB 31/23 Q1010 NOSIG RMK SE/S=
Delhi      
VIDP 220730Z 11008G18KT 4000 BR SCT030 OVC080 27/24 Q1009 NOSIG=
Dehradun   
VIDN 220700Z 24003KT 6000 SCT020 OVC060 25/22 Q1013 =
Gauhati    
VEGT 220730Z 26008KT 5000 HZ SCT020 FEW025CB 33/27 Q1011 TEMPO 3000 -TSRA=
Gaya       
VEGY 220730Z 10013KT 4000 HZ SCT020 BKN100 32/24 Q1011 NOSIG=
Gaggal     
VIGG 220700Z 06007KT 5000 -RA BKN030 FEW035CB OVC080 21/21 Q1018=
Goa        
VOGO 220600Z 17004KT 6000 SCT012 FEW020 BKN080 26/24 Q1010 NOSIG=
Fursatganj 
VERB 220700Z 09012KT 3500 HZ FEW020 OVC090 30/24 Q1008 =
Hyderabad  
VOHS 220730Z 23005KT 6000 SCT015 31/24 Q1011 NOSIG=
Imphal     
VEIM 220730Z 20007KT 7000 SCT018 SCT100 31/22 Q1014 NOSIG=
Indore     
VAID 220700Z 34003KT 2000 -RA SCT010 SCT018 OVC080 24/23 Q1004=
Jabalpur   
VAJB 220630Z 15012G22KT 5000 HZ SCT012 BKN020 OVC080 25/21 Q1008=
Jaipur     
VIJP 220730Z 05007KT 0800 R27/1200 RA BKN015 FEW030CB OVC080 25/24 Q1007 NOSIG=
Kochi      
VOCI 220730Z 29005KT 6000 SCT020 32/20 Q1009 NOSIG=
Kolkata    
VECC 220730Z 18007KT 4000 HZ SCT020 SCT100 31/25 Q1012 NOSIG=
Kozhikode  
VOCL 220730Z 24008KT 8000 SCT012 32/21 Q1009 NOSIG=
Lucknow    
VILK 220730Z 12009KT 3000 BR SCT010 SCT018 FEW030CB OVC090 30/27 Q1009 NOSIG=
Ludhiana   
VILD 220700Z 09006KT 2500 -RA BKN015 BKN025 OVC080 23/22 Q1014=
Madurai    
VOMD 220730Z 16003KT 8000 FEW020 35/20 Q1009 NOSIG=
Mohanbari  
VEMN 220730Z 03006KT 4000 HZ SCT020 BKN100 30/27 Q1012 NOSIG=
Mumbai     
VABB 220730Z 24011KT 5000 HZ FEW020 SCT025 BKN100 30/26 Q1008 NOSIG=
Nagpur     
VANP 220730Z 16008KT 3000 BR SCT008 SCT015 FEW025CB OVC080 28/25 Q1007 TEMPO 1500 TSRA=
Pantnagar
VIPT 220730Z 09012KT 6000 FEW020 OVC090 30/25 Q1011 =
Patna      
VEPT 220730Z 10009KT 4500 HZ SCT018 BKN100 31/24 Q1011 NOSIG=
Raipur     
VERP 220730Z 16006KT 6000 SCT020 OVC080 27/22 Q1010 NOSIG=
Safdarjung 
VIDD 220730Z 07003KT 3000 BR SCT030 FEW035CB OVC090 27/24 Q1009 NOSIG=
Shimla     
VISM 220600Z VRB02KT 1000 RA FEW000 SCT010 BKN030 15/15 Q1021=
Surat     
VASU 220730Z 20004KT 6000 FEW020 SCT025 BKN080 30/23 Q1005=
Ranchi     
VERC 220730Z 16006KT 3000 HZ SCT015 SCT025 BKN100 27/25 Q1015 NOSIG=
Trichy     
VOTR 220730Z 00000KT 6000 FEW018 34/19 Q1007 NOSIG=
Trivandrum 
VOTV 220730Z 30012KT 6000 FEW020 FEW025TCU 31/24 Q1009 NOSIG=
Udaipur    
VAUD 220730Z 03008KT 3500 -DZ SCT015 BKN025 BKN080 28/23 Q1007 TEMPO 3000RA=
Varanasi   
VEBN 220730Z 09011KT 5000 HZ SCT025 BKN100 30/23 Q1009 NOSIG=
Vizag      
VOVZ 220730Z 19010KT 6000 FEW018 32/24 Q1009 NOSIG =
Male       
VRMM 220700Z 27011KT 9999 SCT017TCU BKN260 29/24 Q1011 NOSIG=
Gan        
VRMG 220700Z 20006KT 9999 FEW018TCU BKN250 30/25 Q1012 NOSIG=
Kathmandu  
VNKT 220730Z NIL=
Dhaka      
VGHS 220730Z 25006KT 4000 HZ SCT015 BKN100 33/24 Q1013 NOSIG=
Colombo    
VCBI 220740Z 23013KT 9999 SCT017 FEW020CB 31/23 Q1010 NOSIG RMK SE/S=
Karachi    
OPKC 220724Z 27009KT 6000 NSC 39/10 Q1007 NOSIG=
Lahore     
OPLA 220730Z 15015KT 4000 FU SCT040 BKN100 28/23 Q1011 RMK QFE985 RMK A29.86=
Sri Nagar  
VISR 220730Z 14004KT 6000 FEW025 SCT100 25/10 Q1019 NOSIG=
Bagdogra   
VEBD 220730Z 16006KT 6000 TS SCT025 FEW030CB SCT100 31/25 Q1012 TEMPO TSRA=
Pune       
VAPO 220730Z 27013KT 6000 FEW030 SCT090 BKN200 29/18 1012 TEMPO 27015G25=
Chandigarh 
VICG 220730Z 01008KT 4000 -RABR SCT010 SCT015 OVC080 22/22 Q1013 TEMPO 3000 RA=